createdAt,value
2023-05-02T00:00:37.932Z,73.28
2023-05-02T00:03:24.138Z,73.45
2023-05-02T00:06:00.968Z,73.56
2023-05-02T00:08:37.544Z,73.59
2023-05-02T00:11:14.550Z,73.64
2023-05-02T00:13:50.915Z,73.71
2023-05-02T00:16:27.439Z,73.76
2023-05-02T00:19:03.895Z,73.91
2023-05-02T00:21:40.421Z,74.02
2023-05-02T00:24:16.883Z,74.15
2023-05-02T00:26:53.519Z,74.17
2023-05-02T00:29:30.150Z,74.32
2023-05-02T00:32:06.972Z,74.59
2023-05-02T00:34:43.359Z,74.82
2023-05-02T00:37:20.153Z,74.93
2023-05-02T00:39:56.504Z,75.09
2023-05-02T00:42:36.197Z,75.16
2023-05-02T00:45:14.402Z,75.23
2023-05-02T00:47:50.773Z,75.43
2023-05-02T00:50:30.225Z,75.71
2023-05-02T00:53:08.283Z,75.75
2023-05-02T00:55:44.778Z,75.71
2023-05-02T00:58:22.910Z,75.82
2023-05-02T01:01:23.311Z,75.70
2023-05-02T01:04:23.114Z,75.61
2023-05-02T01:07:42.446Z,75.60
2023-05-02T01:10:37.491Z,75.64
2023-05-02T01:13:22.256Z,75.69
2023-05-02T01:16:04.717Z,75.82
2023-05-02T01:18:45.061Z,76.04
2023-05-02T01:21:21.558Z,76.20
2023-05-02T01:24:15.718Z,76.28
2023-05-02T01:27:24.196Z,76.30
2023-05-02T01:30:04.606Z,76.35
2023-05-02T01:32:45.072Z,76.39
2023-05-02T01:35:24.312Z,76.42
2023-05-02T01:38:03.808Z,76.52
2023-05-02T01:40:43.246Z,76.54
2023-05-02T01:43:22.688Z,76.60
2023-05-02T01:46:02.087Z,76.64
2023-05-02T01:48:40.206Z,76.59
2023-05-02T01:51:19.146Z,76.56
2023-05-02T01:53:57.709Z,76.71
2023-05-02T01:56:37.917Z,76.77
2023-05-02T01:59:19.833Z,76.88
2023-05-02T02:01:57.675Z,76.90
2023-05-02T02:04:36.276Z,76.96
2023-05-02T02:07:17.630Z,77.00
2023-05-02T02:09:54.406Z,77.00
2023-05-02T02:12:37.883Z,77.00
2023-05-02T02:15:26.478Z,76.99
2023-05-02T02:18:11.633Z,76.94
2023-05-02T02:20:51.999Z,76.73
2023-05-02T02:23:34.302Z,76.64
2023-05-02T02:26:11.699Z,76.69
2023-05-02T02:28:49.251Z,76.68
2023-05-02T02:31:26.397Z,76.68
2023-05-02T02:34:03.616Z,76.61
2023-05-02T02:36:49.337Z,76.67
2023-05-02T02:39:45.500Z,76.87
2023-05-02T02:42:35.289Z,77.00
2023-05-02T02:45:31.265Z,77.04
2023-05-02T02:48:28.071Z,77.06
2023-05-02T02:51:16.121Z,77.00
2023-05-02T02:54:25.933Z,77.07
2023-05-02T02:57:26.081Z,77.20
2023-05-02T03:00:13.267Z,77.35
2023-05-02T03:02:53.309Z,77.40
2023-05-02T03:05:30.529Z,77.43
2023-05-02T03:08:07.657Z,77.53
2023-05-02T03:10:44.050Z,77.52
2023-05-02T03:13:20.510Z,77.50
2023-05-02T03:16:42.832Z,77.51
2023-05-02T03:19:21.692Z,77.66
2023-05-02T03:21:58.556Z,77.64
2023-05-02T03:24:34.920Z,77.71
2023-05-02T03:27:12.391Z,77.76
2023-05-02T03:29:49.880Z,77.78
2023-05-02T03:32:26.947Z,77.86
2023-05-02T03:35:04.044Z,78.10
2023-05-02T03:37:41.415Z,78.03
2023-05-02T03:40:21.836Z,78.03
2023-05-02T03:42:58.571Z,78.00
2023-05-02T03:45:37.480Z,77.84
2023-05-02T03:48:13.932Z,77.70
2023-05-02T03:50:51.097Z,77.81
2023-05-02T03:53:28.030Z,77.99
2023-05-02T03:56:08.103Z,78.06
2023-05-02T03:58:51.030Z,77.80
2023-05-02T04:01:28.527Z,77.55
2023-05-02T04:04:06.532Z,77.23
2023-05-02T04:06:47.509Z,76.98
2023-05-02T04:09:25.536Z,76.44
2023-05-02T04:12:18.109Z,75.99
2023-05-02T04:14:57.715Z,75.76
2023-05-02T04:17:39.098Z,75.37
2023-05-02T04:20:18.533Z,75.09
2023-05-02T04:22:58.503Z,74.66
2023-05-02T04:25:35.743Z,74.14
2023-05-02T04:28:13.258Z,73.73
2023-05-02T04:30:50.027Z,73.17
2023-05-02T04:33:28.629Z,72.72
2023-05-02T04:36:05.716Z,72.21
2023-05-02T04:38:43.123Z,71.59
2023-05-02T04:41:21.626Z,71.08
2023-05-02T04:44:03.836Z,70.86
2023-05-02T04:46:40.580Z,69.72
2023-05-02T04:49:16.926Z,68.86
2023-05-02T04:51:53.781Z,68.04
2023-05-02T04:54:31.328Z,66.69
2023-05-02T04:57:08.251Z,65.66
2023-05-02T04:59:46.991Z,64.36
2023-05-02T05:02:23.448Z,62.37
2023-05-02T05:05:02.207Z,61.09
2023-05-02T05:07:38.665Z,58.66
2023-05-02T05:10:16.001Z,57.92
2023-05-02T05:12:55.167Z,56.47
2023-05-02T05:15:31.740Z,52.88
2023-05-02T05:18:10.257Z,50.89
2023-05-02T05:20:46.904Z,51.32
2023-05-02T05:23:23.468Z,50.41
2023-05-02T05:26:00.018Z,49.65
2023-05-02T05:28:36.612Z,48.84
2023-05-02T05:31:17.207Z,47.69
2023-05-02T05:33:56.640Z,46.39
2023-05-02T05:36:33.775Z,45.82
2023-05-02T05:39:12.150Z,45.14
2023-05-02T05:41:50.307Z,44.69
2023-05-02T05:44:27.078Z,43.60
2023-05-02T05:47:03.608Z,43.03
2023-05-02T05:49:40.142Z,43.40
2023-05-02T05:52:19.459Z,43.03
2023-05-02T05:54:58.245Z,42.29
2023-05-02T05:57:36.398Z,42.04
2023-05-02T06:00:18.158Z,41.64
2023-05-02T06:02:56.234Z,41.33
2023-05-02T06:05:37.284Z,39.85
2023-05-02T06:08:13.671Z,38.54
2023-05-02T06:10:50.689Z,37.85
2023-05-02T06:13:27.382Z,37.01
2023-05-02T06:16:09.105Z,37.02
2023-05-02T06:18:45.388Z,35.78
2023-05-02T06:21:23.555Z,35.64
2023-05-02T06:24:00.038Z,35.23
2023-05-02T06:26:36.509Z,34.88
2023-05-02T06:29:12.852Z,34.25
2023-05-02T06:31:51.216Z,34.44
2023-05-02T06:34:27.619Z,34.70
2023-05-02T06:37:04.093Z,34.71
2023-05-02T06:39:42.747Z,34.66
2023-05-02T06:42:19.003Z,34.76
2023-05-02T06:44:56.110Z,34.40
2023-05-02T06:47:32.653Z,34.26
2023-05-02T06:50:11.746Z,33.65
2023-05-02T06:52:48.049Z,33.94
2023-05-02T06:55:24.479Z,34.20
2023-05-02T06:58:01.028Z,33.24
2023-05-02T07:00:37.467Z,33.46
2023-05-02T07:03:13.965Z,33.81
2023-05-02T07:05:50.353Z,33.67
2023-05-02T07:08:28.456Z,34.04
2023-05-02T07:11:05.091Z,34.86
2023-05-02T07:13:41.362Z,34.48
2023-05-02T07:16:17.854Z,32.57
2023-05-02T07:18:54.110Z,32.29
2023-05-02T07:21:30.806Z,32.63
2023-05-02T07:24:08.001Z,33.32
2023-05-02T07:26:44.208Z,33.10
2023-05-02T07:29:20.657Z,32.50
2023-05-02T07:31:57.123Z,32.85
2023-05-02T07:34:33.420Z,32.40
2023-05-02T07:37:09.819Z,32.47
2023-05-02T07:39:46.379Z,32.80
2023-05-02T07:42:22.662Z,33.44
2023-05-02T07:44:59.206Z,33.82
2023-05-02T07:47:38.928Z,33.86
2023-05-02T07:50:17.119Z,34.09
2023-05-02T07:52:53.545Z,34.56
2023-05-02T07:55:31.464Z,34.65
2023-05-02T07:58:08.067Z,34.93
2023-05-02T08:00:44.586Z,35.05
2023-05-02T08:03:21.221Z,36.24
2023-05-02T08:05:57.983Z,36.23
2023-05-02T08:08:34.404Z,36.87
2023-05-02T08:11:10.848Z,36.77
2023-05-02T08:13:47.374Z,37.48
2023-05-02T08:16:24.406Z,38.37
2023-05-02T08:19:00.774Z,38.56
2023-05-02T08:21:37.270Z,38.85
2023-05-02T08:24:13.857Z,39.27
2023-05-02T08:26:50.905Z,39.41
2023-05-02T08:29:28.036Z,40.20
2023-05-02T08:32:07.937Z,40.33
2023-05-02T08:34:45.170Z,40.44
2023-05-02T08:37:22.345Z,40.58
2023-05-02T08:39:59.762Z,41.18
2023-05-02T08:42:39.552Z,41.15
2023-05-02T08:45:31.036Z,41.09
2023-05-02T08:48:17.032Z,41.35
2023-05-02T08:50:56.454Z,40.39
2023-05-02T08:53:36.466Z,41.01
2023-05-02T08:56:16.956Z,40.93
2023-05-02T08:58:56.009Z,40.43
2023-05-02T09:01:46.533Z,40.03
2023-05-02T09:04:30.667Z,40.92
2023-05-02T09:07:08.736Z,40.21
2023-05-02T09:09:47.244Z,39.32
2023-05-02T09:12:30.003Z,39.48
2023-05-02T09:15:24.183Z,39.71
2023-05-02T09:18:03.166Z,40.12
2023-05-02T09:20:46.538Z,39.64
2023-05-02T09:23:35.940Z,39.34
2023-05-02T09:26:28.836Z,39.82
2023-05-02T09:29:08.450Z,39.49
2023-05-02T09:31:56.365Z,39.58
2023-05-02T09:34:34.980Z,39.90
2023-05-02T09:37:13.765Z,40.15
2023-05-02T09:40:12.620Z,40.73
2023-05-02T09:42:49.879Z,40.12
2023-05-02T09:45:31.450Z,40.46
2023-05-02T09:48:10.110Z,40.29
2023-05-02T09:50:48.229Z,40.80
2023-05-02T09:53:30.429Z,41.15
2023-05-02T09:56:11.606Z,41.46
2023-05-02T09:58:51.372Z,41.18
2023-05-02T10:01:29.531Z,41.29
2023-05-02T10:04:11.453Z,42.14
2023-05-02T10:06:51.835Z,42.46
2023-05-02T10:09:32.815Z,42.42
2023-05-02T10:12:11.304Z,42.66
2023-05-02T10:15:00.155Z,42.78
2023-05-02T10:17:49.569Z,42.58
2023-05-02T10:20:37.355Z,42.58
2023-05-02T10:23:16.378Z,42.82
2023-05-02T10:25:54.542Z,41.27
2023-05-02T10:28:33.424Z,41.00
2023-05-02T10:31:13.252Z,40.71
2023-05-02T10:33:57.361Z,40.66
2023-05-02T10:36:37.512Z,38.98
2023-05-02T10:39:17.305Z,37.73
2023-05-02T10:41:59.471Z,38.52
2023-05-02T10:44:46.321Z,39.21
2023-05-02T10:47:30.545Z,39.44
2023-05-02T10:50:10.476Z,39.28
2023-05-02T10:52:47.512Z,39.17
2023-05-02T10:55:26.989Z,39.05
2023-05-02T10:58:27.204Z,38.61
2023-05-02T11:01:42.240Z,38.54
2023-05-02T11:04:19.884Z,37.82
2023-05-02T11:07:23.320Z,38.31
2023-05-02T11:10:30.155Z,37.38
2023-05-02T11:13:07.098Z,37.99
2023-05-02T11:16:02.711Z,37.15
2023-05-02T11:19:05.390Z,37.10
2023-05-02T11:21:42.236Z,37.50
2023-05-02T11:24:44.904Z,37.32
2023-05-02T11:27:47.906Z,36.20
2023-05-02T11:30:43.946Z,37.54
2023-05-02T11:33:24.483Z,37.23
2023-05-02T11:36:01.335Z,36.28
2023-05-02T11:38:43.367Z,37.00
2023-05-02T11:41:20.190Z,36.87
2023-05-02T11:44:08.858Z,37.38
2023-05-02T11:46:48.115Z,35.62
2023-05-02T11:49:25.059Z,35.53
2023-05-02T11:52:04.457Z,35.47
2023-05-02T11:54:41.413Z,35.71
2023-05-02T11:57:18.115Z,36.02
2023-05-02T12:00:01.818Z,35.68
2023-05-02T12:02:48.970Z,36.29
2023-05-02T12:05:34.361Z,36.94
2023-05-02T12:08:21.958Z,36.90
2023-05-02T12:11:00.443Z,36.78
2023-05-02T12:13:45.540Z,37.01
2023-05-02T12:16:24.150Z,37.12
2023-05-02T12:19:01.725Z,37.09
2023-05-02T12:21:38.788Z,36.54
2023-05-02T12:24:15.539Z,36.29
2023-05-02T12:27:09.833Z,36.46
2023-05-02T12:29:50.290Z,35.70
2023-05-02T12:32:38.267Z,35.71
2023-05-02T12:35:27.653Z,36.25
2023-05-02T12:38:17.825Z,36.43
2023-05-02T12:40:58.652Z,33.95
2023-05-02T12:43:49.771Z,35.11
2023-05-02T12:46:25.193Z,35.71
2023-05-02T12:49:12.648Z,35.84
2023-05-02T12:52:00.341Z,36.52
2023-05-02T12:54:37.429Z,36.54
2023-05-02T12:57:26.075Z,36.35
2023-05-02T13:00:03.535Z,37.52
2023-05-02T13:02:43.332Z,38.65
2023-05-02T13:05:24.953Z,40.07
2023-05-02T13:08:02.519Z,42.05
2023-05-02T13:10:39.722Z,42.01
2023-05-02T13:13:16.936Z,43.19
2023-05-02T13:15:54.199Z,44.16
2023-05-02T13:18:31.207Z,45.03
2023-05-02T13:21:08.043Z,45.28
2023-05-02T13:23:45.942Z,45.30
2023-05-02T13:26:23.313Z,45.02
2023-05-02T13:29:00.280Z,44.17
2023-05-02T13:31:39.640Z,43.22
2023-05-02T13:34:16.170Z,43.74
2023-05-02T13:36:52.742Z,44.79
2023-05-02T13:39:29.671Z,46.39
2023-05-02T13:42:06.775Z,50.53
2023-05-02T13:44:43.887Z,53.65
2023-05-02T13:47:21.652Z,55.24
2023-05-02T13:49:58.871Z,56.61
2023-05-02T13:52:35.651Z,57.97
2023-05-02T13:55:13.685Z,60.05
2023-05-02T13:57:51.015Z,59.03
2023-05-02T14:00:29.287Z,59.35
2023-05-02T14:03:07.185Z,61.14
2023-05-02T14:05:44.672Z,61.34
2023-05-02T14:08:21.642Z,62.23
2023-05-02T14:10:58.664Z,63.78
2023-05-02T14:13:35.063Z,65.51
2023-05-02T14:16:12.531Z,66.11
2023-05-02T14:18:50.166Z,67.45
2023-05-02T14:21:27.393Z,68.52
2023-05-02T14:24:04.406Z,69.28
2023-05-02T14:26:41.151Z,70.21
2023-05-02T14:29:18.603Z,70.92
2023-05-02T14:31:55.724Z,71.41
2023-05-02T14:34:32.866Z,71.67
2023-05-02T14:37:11.179Z,72.25
2023-05-02T14:39:50.829Z,73.14
2023-05-02T14:42:28.876Z,73.09
2023-05-02T14:45:06.654Z,73.59
2023-05-02T14:47:43.877Z,74.21
2023-05-02T14:50:21.818Z,74.70
2023-05-02T14:52:59.778Z,75.17
2023-05-02T14:55:41.789Z,75.27
2023-05-02T14:58:20.756Z,75.53
2023-05-02T15:01:00.807Z,75.93
2023-05-02T15:03:52.362Z,76.12
2023-05-02T15:06:37.353Z,76.65
2023-05-02T15:09:14.251Z,76.90
2023-05-02T15:11:54.025Z,76.82
2023-05-02T15:14:30.920Z,76.38
2023-05-02T15:17:08.068Z,75.98
2023-05-02T15:19:44.883Z,74.62
2023-05-02T15:22:24.293Z,73.35
2023-05-02T15:25:01.391Z,74.43
2023-05-02T15:27:40.218Z,74.22
2023-05-02T15:30:19.537Z,74.66
2023-05-02T15:32:59.553Z,74.90
2023-05-02T15:35:36.975Z,75.33
2023-05-02T15:38:14.297Z,74.85
2023-05-02T15:41:00.263Z,74.68
2023-05-02T15:43:37.477Z,74.69
2023-05-02T15:46:14.683Z,74.42
2023-05-02T15:48:51.539Z,74.84
2023-05-02T15:51:28.189Z,74.56
2023-05-02T15:54:07.037Z,74.87
2023-05-02T15:56:44.614Z,74.75
2023-05-02T15:59:21.569Z,74.96
2023-05-02T16:01:58.336Z,75.20
2023-05-02T16:04:35.114Z,74.99
2023-05-02T16:07:11.758Z,74.87
2023-05-02T16:09:48.361Z,75.02
2023-05-02T16:12:26.337Z,75.15
2023-05-02T16:15:03.964Z,75.52
2023-05-02T16:17:42.979Z,75.50
2023-05-02T16:20:21.202Z,75.61
2023-05-02T16:22:57.904Z,75.67
2023-05-02T16:25:36.124Z,75.64
2023-05-02T16:28:15.940Z,75.95
2023-05-02T16:30:53.505Z,75.94
2023-05-02T16:33:31.371Z,75.96
2023-05-02T16:36:11.725Z,75.96
2023-05-02T16:38:49.310Z,76.30
2023-05-02T16:41:26.866Z,77.18
2023-05-02T16:44:03.887Z,77.13
2023-05-02T16:46:41.546Z,77.06
2023-05-02T16:49:18.528Z,77.17
2023-05-02T16:51:56.191Z,77.45
2023-05-02T16:54:33.042Z,77.53
2023-05-02T16:57:10.896Z,77.84
2023-05-02T16:59:48.592Z,77.99
2023-05-02T17:02:25.866Z,78.20
2023-05-02T17:05:02.524Z,78.51
2023-05-02T17:07:40.131Z,78.82
2023-05-02T17:10:19.515Z,79.39
2023-05-02T17:13:01.900Z,79.78
2023-05-02T17:15:42.819Z,79.96
2023-05-02T17:18:19.748Z,80.26
2023-05-02T17:20:58.077Z,80.17
2023-05-02T17:23:37.414Z,80.28
2023-05-02T17:26:15.698Z,80.42
2023-05-02T17:28:53.755Z,80.28
2023-05-02T17:31:30.928Z,80.41
2023-05-02T17:34:08.800Z,80.64
2023-05-02T17:36:46.453Z,80.66
2023-05-02T17:39:25.466Z,80.65
2023-05-02T17:42:02.741Z,80.72
2023-05-02T17:44:42.375Z,80.76
2023-05-02T17:47:20.180Z,80.92
2023-05-02T17:50:00.164Z,81.21
2023-05-02T17:52:38.948Z,81.37
2023-05-02T17:55:19.805Z,81.41
